WetterOnline ( https://www.wetteronline.ch )

Wetter aktuell Feldberg Gipfel

Aktuelles Wetter: Feldberg/Schwarzwald (1493m)

6-stündlich | Neueste Meldungen
Ortszeit Temperatur Wetter
Di, 17.09. 2:00 14.3° C bedeckt
Mo, 16.09. 20:00 15.1° C bedeckt
Mo, 16.09. 14:00 16.9° C wolkenlos
Mo, 16.09. 8:00 14.9° C wolkenlos
Mo, 16.09. 2:00 14.8° C wolkenlos
So, 15.09. 20:00 15.9° C wolkenlos
So, 15.09. 14:00 16.3° C fast wolkenlos
So, 15.09. 8:00 15.9° C wolkenlos
Ortszeit Temperatur Wetter
Di, 17.09. 4:00 12.5° C bedeckt
Di, 17.09. 3:40 12.7° C bewölkt
Di, 17.09. 3:30 12.8° C leicht bewölkt
Di, 17.09. 3:20 12.8° C leicht bewölkt
Di, 17.09. 3:10 13.0° C wolkenlos
Di, 17.09. 3:00 13.4° C leicht bewölkt
Di, 17.09. 2:50 13.4° C leicht bewölkt
Di, 17.09. 2:30 13.5° C bedeckt
Di, 17.09. 2:00 14.3° C bedeckt
Ortszeit Relative Feuchte Sichtweite
Di, 17.09. 2:00 46% 65 km
Mo, 16.09. 20:00 80% 35 km
Mo, 16.09. 14:00 62% 60 km
Mo, 16.09. 8:00 73% 50 km
Mo, 16.09. 2:00 73% 60 km
So, 15.09. 20:00 65% 60 km
So, 15.09. 14:00 76% 50 km
So, 15.09. 8:00 53% >70 km
Ortszeit Relative Feuchte Sichtweite
Di, 17.09. 4:00 57% 50 km
Di, 17.09. 3:40 54% -
Di, 17.09. 3:30 53% 60 km
Di, 17.09. 3:20 53% -
Di, 17.09. 3:10 53% -
Di, 17.09. 3:00 50% >70 km
Di, 17.09. 2:50 50% -
Di, 17.09. 2:30 51% 60 km
Di, 17.09. 2:00 46% 65 km
Ortszeit Niederschlagsmenge Niederschlagsart
Di, 17.09. 2:00 0.0 l/m2 in 6 Std. -
Mo, 16.09. 20:00 0.0 l/m2 in 12 Std. -
Mo, 16.09. 14:00 0.0 l/m2 in 6 Std. -
Mo, 16.09. 8:00 0.0 l/m2 in 12 Std. -
Mo, 16.09. 2:00 0.0 l/m2 in 6 Std. -
So, 15.09. 20:00 0.0 l/m2 in 12 Std. -
So, 15.09. 14:00 0.0 l/m2 in 6 Std. -
So, 15.09. 8:00 0.0 l/m2 in 12 Std. -
Ortszeit Niederschlagsmenge Niederschlagsart
Di, 17.09. 4:00 0.0 l/m2 in 1 Std. -
Di, 17.09. 3:40 keine Meldung -
Di, 17.09. 3:30 0.0 l/m2 in 1 Std. -
Di, 17.09. 3:20 keine Meldung -
Di, 17.09. 3:10 keine Meldung -
Di, 17.09. 3:00 0.0 l/m2 in 1 Std. -
Di, 17.09. 2:50 keine Meldung -
Di, 17.09. 2:30 0.0 l/m2 in 1 Std. -
Di, 17.09. 2:00 0.0 l/m2 in 1 Std. -
Ortszeit Stärke Spitze Richtung
km/h Bft. km/h Grad Sektor
Di, 17.09. 2:00 22 4 32 270° W
Mo, 16.09. 20:00 15 3 41 310° NW
Mo, 16.09. 14:00 29 5 43 250° W
Mo, 16.09. 8:00 24 4 33 260° W
Mo, 16.09. 2:00 30 5 33 220° SW
So, 15.09. 20:00 11 2 22 260° W
So, 15.09. 14:00 14 3 22 290° W
So, 15.09. 8:00 9 2 20 250° W
Ortszeit Stärke Spitze Richtung
km/h Bft. km/h Grad Sektor
Di, 17.09. 4:00 14 3 25 290° W
Di, 17.09. 3:40 17 3 - 270° W
Di, 17.09. 3:30 17 3 26 270° W
Di, 17.09. 3:20 17 3 - 270° W
Di, 17.09. 3:10 19 3 - 270° W
Di, 17.09. 3:00 22 4 32 260° W
Di, 17.09. 2:50 22 4 - 260° W
Di, 17.09. 2:30 18 3 32 270° W
Di, 17.09. 2:00 22 4 32 270° W
Ortszeit Untergrenze Bedeckung Gattung
total tief tief mittel hoch
Di, 17.09. 2:00 3300 m 8/8 8/8 - - -
Mo, 16.09. 20:00 4800 m 8/8 8/8 - - -
Mo, 16.09. 14:00 - 0/8 0/8 - - -
Mo, 16.09. 8:00 - 0/8 0/8 - - -
Mo, 16.09. 2:00 - 0/8 0/8 - - -
So, 15.09. 20:00 - 0/8 0/8 - - -
So, 15.09. 14:00 690 m 1/8 1/8 - - -
So, 15.09. 8:00 - 0/8 0/8 - - -
Ortszeit Bedeckungsgrad in Achtel und Wolkenuntergrenze
Di, 17.09. 4:00 8(3000m)
Di, 17.09. 3:40 7(3000m)
Di, 17.09. 3:30 2(3000m)
Di, 17.09. 3:20 2(3000m)
Di, 17.09. 3:10 keine Wolken
Di, 17.09. 3:00 4(3300m)
Di, 17.09. 2:50 4(3300m)
Di, 17.09. 2:30 8(3300m)
Di, 17.09. 2:00 8(3300m)
Ortszeit Stationsdruck (hPa) Tendenz (hPa in 3 Std.)
Di, 17.09. 2:00 855 - 1,1
Mo, 16.09. 20:00 856 - 0,2
Mo, 16.09. 14:00 857 - 0,6
Mo, 16.09. 8:00 857 - 0,6
Mo, 16.09. 2:00 858 - 0,6
So, 15.09. 20:00 859 - 0,6
So, 15.09. 14:00 861 - 0,4
So, 15.09. 8:00 861 - 0,2
Ortszeit Stationsdruck (hPa) Tendenz (hPa in 3 Std.)
Di, 17.09. 4:00 855 - 0,6
Di, 17.09. 3:40 855 keine Meldung
Di, 17.09. 3:30 855 - 0,8
Di, 17.09. 3:20 855 keine Meldung
Di, 17.09. 3:10 855 keine Meldung
Di, 17.09. 3:00 855 - 0,9
Di, 17.09. 2:50 855 keine Meldung
Di, 17.09. 2:30 855 - 1,1
Di, 17.09. 2:00 855 - 1,1
Ortszeit Schneehöhe (cm)
Di, 17.09. 2:00 0
Mo, 16.09. 20:00 0
Mo, 16.09. 14:00 0
Mo, 16.09. 8:00 0
Mo, 16.09. 2:00 0
So, 15.09. 20:00 0
So, 15.09. 14:00 0
So, 15.09. 8:00 0
Ortszeit Schneehöhe (cm)
Di, 17.09. 4:00 0
Di, 17.09. 3:40 0
Di, 17.09. 3:30 0
Di, 17.09. 3:20 0
Di, 17.09. 3:10 0
Di, 17.09. 3:00 0
Di, 17.09. 2:50 0
Di, 17.09. 2:30 0
Di, 17.09. 2:00 0
Link zu dieser Seite / Seite empfehlen

Das Wetter in ...